sensor_id;sensor_type;location;lat;lon;timestamp;temperature;humidity
35668;DHT22;22158;59.280;17.806;2024-02-04T00:00:44;3.20;99.90
35668;DHT22;22158;59.280;17.806;2024-02-04T00:03:10;3.20;99.90
35668;DHT22;22158;59.280;17.806;2024-02-04T00:05:35;3.20;99.90
35668;DHT22;22158;59.280;17.806;2024-02-04T00:08:01;3.20;99.90
35668;DHT22;22158;59.280;17.806;2024-02-04T00:10:28;3.20;99.90
35668;DHT22;22158;59.280;17.806;2024-02-04T00:12:54;3.20;99.90
35668;DHT22;22158;59.280;17.806;2024-02-04T00:15:19;3.20;99.90
35668;DHT22;22158;59.280;17.806;2024-02-04T00:17:45;3.20;99.90
35668;DHT22;22158;59.280;17.806;2024-02-04T00:20:11;3.20;99.90
35668;DHT22;22158;59.280;17.806;2024-02-04T00:22:37;3.20;99.90
35668;DHT22;22158;59.280;17.806;2024-02-04T00:25:03;3.20;99.90
35668;DHT22;22158;59.280;17.806;2024-02-04T00:27:33;3.30;99.90
35668;DHT22;22158;59.280;17.806;2024-02-04T00:29:59;3.30;99.90
35668;DHT22;22158;59.280;17.806;2024-02-04T00:32:26;3.30;99.90
35668;DHT22;22158;59.280;17.806;2024-02-04T00:34:53;3.30;99.90
35668;DHT22;22158;59.280;17.806;2024-02-04T00:37:19;3.20;99.90
35668;DHT22;22158;59.280;17.806;2024-02-04T00:39:45;3.30;99.90
35668;DHT22;22158;59.280;17.806;2024-02-04T00:42:10;3.20;99.90
35668;DHT22;22158;59.280;17.806;2024-02-04T00:44:36;3.20;99.90
35668;DHT22;22158;59.280;17.806;2024-02-04T00:47:02;3.10;99.90
35668;DHT22;22158;59.280;17.806;2024-02-04T00:49:28;3.10;99.90
35668;DHT22;22158;59.280;17.806;2024-02-04T00:51:54;3.00;99.90
35668;DHT22;22158;59.280;17.806;2024-02-04T00:54:19;3.00;99.90
35668;DHT22;22158;59.280;17.806;2024-02-04T00:56:45;3.00;99.90
35668;DHT22;22158;59.280;17.806;2024-02-04T00:59:11;3.00;99.90
35668;DHT22;22158;59.280;17.806;2024-02-04T01:01:37;2.90;99.90
35668;DHT22;22158;59.280;17.806;2024-02-04T01:04:03;2.90;99.90
35668;DHT22;22158;59.280;17.806;2024-02-04T01:06:29;3.00;99.90
35668;DHT22;22158;59.280;17.806;2024-02-04T01:08:58;3.00;99.90
35668;DHT22;22158;59.280;17.806;2024-02-04T01:11:24;2.90;99.90
35668;DHT22;22158;59.280;17.806;2024-02-04T01:13:49;2.90;99.90
35668;DHT22;22158;59.280;17.806;2024-02-04T01:16:15;3.00;99.90
35668;DHT22;22158;59.280;17.806;2024-02-04T01:18:41;2.90;99.90
35668;DHT22;22158;59.280;17.806;2024-02-04T01:21:06;2.90;99.90
35668;DHT22;22158;59.280;17.806;2024-02-04T01:23:34;2.90;99.90
35668;DHT22;22158;59.280;17.806;2024-02-04T01:25:59;3.00;99.90
35668;DHT22;22158;59.280;17.806;2024-02-04T01:28:25;3.00;99.90
35668;DHT22;22158;59.280;17.806;2024-02-04T01:30:50;3.00;99.90
35668;DHT22;22158;59.280;17.806;2024-02-04T01:33:16;2.90;99.90
35668;DHT22;22158;59.280;17.806;2024-02-04T01:35:42;2.90;99.90
35668;DHT22;22158;59.280;17.806;2024-02-04T01:38:07;2.90;99.90
35668;DHT22;22158;59.280;17.806;2024-02-04T01:40:33;2.90;99.90
35668;DHT22;22158;59.280;17.806;2024-02-04T01:42:59;2.90;99.90
35668;DHT22;22158;59.280;17.806;2024-02-04T01:45:24;2.80;99.90
35668;DHT22;22158;59.280;17.806;2024-02-04T01:47:50;2.80;99.90
35668;DHT22;22158;59.280;17.806;2024-02-04T01:50:16;2.80;99.90
35668;DHT22;22158;59.280;17.806;2024-02-04T01:52:43;2.80;99.90
35668;DHT22;22158;59.280;17.806;2024-02-04T01:55:09;2.80;99.90
35668;DHT22;22158;59.280;17.806;2024-02-04T01:57:35;2.90;99.90
35668;DHT22;22158;59.280;17.806;2024-02-04T02:00:01;2.80;99.90
35668;DHT22;22158;59.280;17.806;2024-02-04T02:02:28;2.80;99.90
35668;DHT22;22158;59.280;17.806;2024-02-04T02:04:54;2.80;99.90
35668;DHT22;22158;59.280;17.806;2024-02-04T02:07:20;2.80;99.90
35668;DHT22;22158;59.280;17.806;2024-02-04T02:09:47;2.80;99.90
35668;DHT22;22158;59.280;17.806;2024-02-04T02:12:39;2.80;99.90
35668;DHT22;22158;59.280;17.806;2024-02-04T02:15:18;2.80;99.90
35668;DHT22;22158;59.280;17.806;2024-02-04T02:17:53;2.80;99.90
35668;DHT22;22158;59.280;17.806;2024-02-04T02:20:32;2.80;99.90
35668;DHT22;22158;59.280;17.806;2024-02-04T02:23:11;2.80;99.90
35668;DHT22;22158;59.280;17.806;2024-02-04T02:25:40;2.80;99.90
35668;DHT22;22158;59.280;17.806;2024-02-04T02:28:07;2.70;99.90
35668;DHT22;22158;59.280;17.806;2024-02-04T02:30:32;2.70;99.90
35668;DHT22;22158;59.280;17.806;2024-02-04T02:32:58;2.70;99.90
35668;DHT22;22158;59.280;17.806;2024-02-04T02:35:25;2.70;99.90
35668;DHT22;22158;59.280;17.806;2024-02-04T02:43:02;2.70;99.90
35668;DHT22;22158;59.280;17.806;2024-02-04T02:45:28;2.70;99.90
35668;DHT22;22158;59.280;17.806;2024-02-04T02:47:54;2.60;99.90
35668;DHT22;22158;59.280;17.806;2024-02-04T02:50:21;2.60;99.90
35668;DHT22;22158;59.280;17.806;2024-02-04T02:52:47;2.70;99.90
35668;DHT22;22158;59.280;17.806;2024-02-04T02:55:13;2.70;99.90
35668;DHT22;22158;59.280;17.806;2024-02-04T02:57:38;2.60;99.90
35668;DHT22;22158;59.280;17.806;2024-02-04T03:00:04;2.60;99.90
35668;DHT22;22158;59.280;17.806;2024-02-04T03:02:32;2.60;99.90
35668;DHT22;22158;59.280;17.806;2024-02-04T03:04:57;2.60;99.90
35668;DHT22;22158;59.280;17.806;2024-02-04T03:07:23;2.50;99.90
35668;DHT22;22158;59.280;17.806;2024-02-04T03:09:49;2.50;99.90
35668;DHT22;22158;59.280;17.806;2024-02-04T03:12:14;2.50;99.90
35668;DHT22;22158;59.280;17.806;2024-02-04T03:14:40;2.60;99.90
35668;DHT22;22158;59.280;17.806;2024-02-04T03:17:06;2.50;99.90
35668;DHT22;22158;59.280;17.806;2024-02-04T03:19:31;2.50;99.90
35668;DHT22;22158;59.280;17.806;2024-02-04T03:21:57;2.40;99.90
35668;DHT22;22158;59.280;17.806;2024-02-04T03:24:23;2.40;99.90
35668;DHT22;22158;59.280;17.806;2024-02-04T03:26:48;2.40;99.90
35668;DHT22;22158;59.280;17.806;2024-02-04T03:29:14;2.50;99.90
35668;DHT22;22158;59.280;17.806;2024-02-04T03:31:39;2.50;99.90
35668;DHT22;22158;59.280;17.806;2024-02-04T03:34:05;2.40;99.90
35668;DHT22;22158;59.280;17.806;2024-02-04T03:36:31;2.40;99.90
35668;DHT22;22158;59.280;17.806;2024-02-04T03:38:57;2.40;99.90
35668;DHT22;22158;59.280;17.806;2024-02-04T03:41:23;2.30;99.90
35668;DHT22;22158;59.280;17.806;2024-02-04T03:43:49;2.30;99.90
35668;DHT22;22158;59.280;17.806;2024-02-04T03:46:15;2.30;99.90
35668;DHT22;22158;59.280;17.806;2024-02-04T03:48:41;2.30;99.90
35668;DHT22;22158;59.280;17.806;2024-02-04T03:51:06;2.20;99.90
35668;DHT22;22158;59.280;17.806;2024-02-04T03:53:33;2.30;99.90
35668;DHT22;22158;59.280;17.806;2024-02-04T03:55:58;2.30;99.90
35668;DHT22;22158;59.280;17.806;2024-02-04T03:58:24;2.30;99.90
35668;DHT22;22158;59.280;17.806;2024-02-04T04:00:57;2.30;99.90
35668;DHT22;22158;59.280;17.806;2024-02-04T04:03:24;2.30;99.90
35668;DHT22;22158;59.280;17.806;2024-02-04T04:05:50;2.30;99.90
35668;DHT22;22158;59.280;17.806;2024-02-04T04:08:16;2.30;99.90
35668;DHT22;22158;59.280;17.806;2024-02-04T04:10:41;2.20;99.90
35668;DHT22;22158;59.280;17.806;2024-02-04T04:13:07;2.20;99.90
35668;DHT22;22158;59.280;17.806;2024-02-04T04:15:33;2.20;99.90
35668;DHT22;22158;59.280;17.806;2024-02-04T04:17:58;2.20;99.90
35668;DHT22;22158;59.280;17.806;2024-02-04T04:20:24;2.20;99.90
35668;DHT22;22158;59.280;17.806;2024-02-04T04:22:49;2.20;99.90
35668;DHT22;22158;59.280;17.806;2024-02-04T04:25:15;2.20;99.90
35668;DHT22;22158;59.280;17.806;2024-02-04T04:27:42;2.20;99.90
35668;DHT22;22158;59.280;17.806;2024-02-04T04:30:08;2.20;99.90
35668;DHT22;22158;59.280;17.806;2024-02-04T04:32:34;2.00;99.90
35668;DHT22;22158;59.280;17.806;2024-02-04T04:35:00;2.00;99.90
35668;DHT22;22158;59.280;17.806;2024-02-04T04:37:25;2.00;99.90
35668;DHT22;22158;59.280;17.806;2024-02-04T04:39:51;2.10;99.90
35668;DHT22;22158;59.280;17.806;2024-02-04T04:42:16;2.10;99.90
35668;DHT22;22158;59.280;17.806;2024-02-04T04:44:42;2.00;99.90
35668;DHT22;22158;59.280;17.806;2024-02-04T04:47:08;2.10;99.90
35668;DHT22;22158;59.280;17.806;2024-02-04T04:49:34;2.10;99.90
35668;DHT22;22158;59.280;17.806;2024-02-04T04:51:59;2.10;99.90
35668;DHT22;22158;59.280;17.806;2024-02-04T04:54:27;2.10;99.90
35668;DHT22;22158;59.280;17.806;2024-02-04T04:56:53;2.10;99.90
35668;DHT22;22158;59.280;17.806;2024-02-04T04:59:19;2.10;99.90
35668;DHT22;22158;59.280;17.806;2024-02-04T05:01:48;2.10;99.90
35668;DHT22;22158;59.280;17.806;2024-02-04T05:04:15;2.00;99.90
35668;DHT22;22158;59.280;17.806;2024-02-04T05:06:41;1.90;99.90
35668;DHT22;22158;59.280;17.806;2024-02-04T05:09:07;2.00;99.90
35668;DHT22;22158;59.280;17.806;2024-02-04T05:11:32;1.90;99.90
35668;DHT22;22158;59.280;17.806;2024-02-04T05:13:58;1.90;99.90
35668;DHT22;22158;59.280;17.806;2024-02-04T05:16:23;1.80;99.90
35668;DHT22;22158;59.280;17.806;2024-02-04T05:18:49;1.80;99.90
35668;DHT22;22158;59.280;17.806;2024-02-04T05:21:15;1.80;99.90
35668;DHT22;22158;59.280;17.806;2024-02-04T05:23:40;1.80;99.90
35668;DHT22;22158;59.280;17.806;2024-02-04T05:26:06;1.80;99.90
35668;DHT22;22158;59.280;17.806;2024-02-04T05:28:32;1.80;99.90
35668;DHT22;22158;59.280;17.806;2024-02-04T05:30:58;1.80;99.90
35668;DHT22;22158;59.280;17.806;2024-02-04T05:33:24;1.80;99.90
35668;DHT22;22158;59.280;17.806;2024-02-04T05:35:49;1.80;99.90
35668;DHT22;22158;59.280;17.806;2024-02-04T05:38:16;1.80;99.90
35668;DHT22;22158;59.280;17.806;2024-02-04T05:40:42;1.80;99.90
35668;DHT22;22158;59.280;17.806;2024-02-04T05:43:08;1.80;99.90
35668;DHT22;22158;59.280;17.806;2024-02-04T05:45:38;1.70;99.90
35668;DHT22;22158;59.280;17.806;2024-02-04T05:48:09;1.70;99.90
35668;DHT22;22158;59.280;17.806;2024-02-04T05:50:36;1.70;99.90
35668;DHT22;22158;59.280;17.806;2024-02-04T05:53:02;1.70;99.90
35668;DHT22;22158;59.280;17.806;2024-02-04T05:55:28;1.70;99.90
35668;DHT22;22158;59.280;17.806;2024-02-04T05:57:54;1.70;99.90
35668;DHT22;22158;59.280;17.806;2024-02-04T06:00:20;1.70;99.90
35668;DHT22;22158;59.280;17.806;2024-02-04T06:02:45;1.60;99.90
35668;DHT22;22158;59.280;17.806;2024-02-04T06:05:12;1.70;99.90
35668;DHT22;22158;59.280;17.806;2024-02-04T06:07:38;1.60;99.90
35668;DHT22;22158;59.280;17.806;2024-02-04T06:10:04;1.60;99.90
35668;DHT22;22158;59.280;17.806;2024-02-04T06:12:30;1.70;99.90
35668;DHT22;22158;59.280;17.806;2024-02-04T06:14:56;1.60;99.90
35668;DHT22;22158;59.280;17.806;2024-02-04T06:17:22;1.60;99.90
35668;DHT22;22158;59.280;17.806;2024-02-04T06:19:47;1.50;99.90
35668;DHT22;22158;59.280;17.806;2024-02-04T06:22:15;1.50;99.90
35668;DHT22;22158;59.280;17.806;2024-02-04T06:24:40;1.50;99.90
35668;DHT22;22158;59.280;17.806;2024-02-04T06:27:10;1.50;99.90
35668;DHT22;22158;59.280;17.806;2024-02-04T06:29:36;1.50;99.90
35668;DHT22;22158;59.280;17.806;2024-02-04T06:32:02;1.50;99.90
35668;DHT22;22158;59.280;17.806;2024-02-04T06:34:28;1.50;99.90
35668;DHT22;22158;59.280;17.806;2024-02-04T06:36:54;1.50;99.90
35668;DHT22;22158;59.280;17.806;2024-02-04T06:39:20;1.60;99.90
35668;DHT22;22158;59.280;17.806;2024-02-04T06:41:45;1.50;99.90
35668;DHT22;22158;59.280;17.806;2024-02-04T06:44:11;1.50;99.90
35668;DHT22;22158;59.280;17.806;2024-02-04T06:46:37;1.50;99.90
35668;DHT22;22158;59.280;17.806;2024-02-04T06:49:03;1.50;99.90
35668;DHT22;22158;59.280;17.806;2024-02-04T06:51:28;1.60;99.90
35668;DHT22;22158;59.280;17.806;2024-02-04T06:53:54;1.50;99.90
35668;DHT22;22158;59.280;17.806;2024-02-04T06:56:20;1.50;99.90
35668;DHT22;22158;59.280;17.806;2024-02-04T06:58:45;1.60;99.90
35668;DHT22;22158;59.280;17.806;2024-02-04T07:01:11;1.60;99.90
35668;DHT22;22158;59.280;17.806;2024-02-04T07:03:37;1.60;99.90
35668;DHT22;22158;59.280;17.806;2024-02-04T07:06:04;1.60;99.90
35668;DHT22;22158;59.280;17.806;2024-02-04T07:08:29;1.60;99.90
35668;DHT22;22158;59.280;17.806;2024-02-04T07:10:55;1.60;99.90
35668;DHT22;22158;59.280;17.806;2024-02-04T07:13:21;1.60;99.90
35668;DHT22;22158;59.280;17.806;2024-02-04T07:15:47;1.60;99.90
35668;DHT22;22158;59.280;17.806;2024-02-04T07:18:13;1.60;99.90
35668;DHT22;22158;59.280;17.806;2024-02-04T07:20:38;1.70;99.90
35668;DHT22;22158;59.280;17.806;2024-02-04T07:23:05;1.70;99.90
35668;DHT22;22158;59.280;17.806;2024-02-04T07:25:30;1.80;99.90
35668;DHT22;22158;59.280;17.806;2024-02-04T07:27:57;1.80;99.90
35668;DHT22;22158;59.280;17.806;2024-02-04T07:30:23;1.80;99.90
35668;DHT22;22158;59.280;17.806;2024-02-04T07:32:49;1.80;99.90
35668;DHT22;22158;59.280;17.806;2024-02-04T07:35:15;1.90;99.90
35668;DHT22;22158;59.280;17.806;2024-02-04T07:37:40;1.90;99.90
35668;DHT22;22158;59.280;17.806;2024-02-04T07:40:07;2.00;99.90
35668;DHT22;22158;59.280;17.806;2024-02-04T07:42:33;2.00;99.90
35668;DHT22;22158;59.280;17.806;2024-02-04T07:44:58;2.00;99.90
35668;DHT22;22158;59.280;17.806;2024-02-04T07:47:24;2.00;99.90
35668;DHT22;22158;59.280;17.806;2024-02-04T07:49:51;2.00;99.90
35668;DHT22;22158;59.280;17.806;2024-02-04T07:52:17;2.00;99.90
35668;DHT22;22158;59.280;17.806;2024-02-04T07:54:42;2.10;99.90
35668;DHT22;22158;59.280;17.806;2024-02-04T07:57:12;2.00;99.90
35668;DHT22;22158;59.280;17.806;2024-02-04T07:59:37;2.10;99.90
35668;DHT22;22158;59.280;17.806;2024-02-04T08:02:03;2.10;99.90
35668;DHT22;22158;59.280;17.806;2024-02-04T08:04:29;2.10;99.90
35668;DHT22;22158;59.280;17.806;2024-02-04T08:06:54;2.10;99.90
35668;DHT22;22158;59.280;17.806;2024-02-04T08:09:20;2.10;99.90
35668;DHT22;22158;59.280;17.806;2024-02-04T08:11:46;2.10;99.90
35668;DHT22;22158;59.280;17.806;2024-02-04T08:14:12;2.10;99.90
35668;DHT22;22158;59.280;17.806;2024-02-04T08:16:40;2.10;99.90
35668;DHT22;22158;59.280;17.806;2024-02-04T08:19:06;2.10;99.90
35668;DHT22;22158;59.280;17.806;2024-02-04T08:21:32;2.00;99.90
35668;DHT22;22158;59.280;17.806;2024-02-04T08:23:58;2.00;99.90
35668;DHT22;22158;59.280;17.806;2024-02-04T08:26:24;2.00;99.90
35668;DHT22;22158;59.280;17.806;2024-02-04T08:28:50;2.10;99.90
35668;DHT22;22158;59.280;17.806;2024-02-04T08:31:16;2.10;99.90
35668;DHT22;22158;59.280;17.806;2024-02-04T08:33:42;2.10;99.90
35668;DHT22;22158;59.280;17.806;2024-02-04T08:36:07;2.10;99.90
35668;DHT22;22158;59.280;17.806;2024-02-04T08:38:36;2.10;99.90
35668;DHT22;22158;59.280;17.806;2024-02-04T08:41:02;2.10;99.90
35668;DHT22;22158;59.280;17.806;2024-02-04T08:43:28;2.20;99.90
35668;DHT22;22158;59.280;17.806;2024-02-04T08:45:54;2.20;99.90
35668;DHT22;22158;59.280;17.806;2024-02-04T08:48:19;2.30;99.90
35668;DHT22;22158;59.280;17.806;2024-02-04T08:50:45;2.30;99.90
35668;DHT22;22158;59.280;17.806;2024-02-04T08:53:11;2.30;99.90
35668;DHT22;22158;59.280;17.806;2024-02-04T08:55:36;2.30;99.90
35668;DHT22;22158;59.280;17.806;2024-02-04T08:58:02;2.40;99.90
35668;DHT22;22158;59.280;17.806;2024-02-04T09:00:28;2.40;99.90
35668;DHT22;22158;59.280;17.806;2024-02-04T09:02:53;2.40;99.90
35668;DHT22;22158;59.280;17.806;2024-02-04T09:05:19;2.40;99.90
35668;DHT22;22158;59.280;17.806;2024-02-04T09:07:45;2.50;99.90
35668;DHT22;22158;59.280;17.806;2024-02-04T09:10:11;2.50;99.90
35668;DHT22;22158;59.280;17.806;2024-02-04T09:12:38;2.50;99.90
35668;DHT22;22158;59.280;17.806;2024-02-04T09:15:04;2.50;99.90
35668;DHT22;22158;59.280;17.806;2024-02-04T09:17:30;2.60;99.90
35668;DHT22;22158;59.280;17.806;2024-02-04T09:19:58;2.70;99.90
35668;DHT22;22158;59.280;17.806;2024-02-04T09:22:24;2.70;99.90
35668;DHT22;22158;59.280;17.806;2024-02-04T09:24:50;2.80;99.90
35668;DHT22;22158;59.280;17.806;2024-02-04T09:27:15;2.80;99.90
35668;DHT22;22158;59.280;17.806;2024-02-04T09:29:41;2.80;99.90
35668;DHT22;22158;59.280;17.806;2024-02-04T09:32:07;2.90;99.90
35668;DHT22;22158;59.280;17.806;2024-02-04T09:34:33;2.90;99.90
35668;DHT22;22158;59.280;17.806;2024-02-04T09:36:59;3.00;99.90
35668;DHT22;22158;59.280;17.806;2024-02-04T09:39:24;2.90;99.90
35668;DHT22;22158;59.280;17.806;2024-02-04T09:41:50;3.00;99.90
35668;DHT22;22158;59.280;17.806;2024-02-04T09:44:17;3.00;99.90
35668;DHT22;22158;59.280;17.806;2024-02-04T09:46:43;3.00;99.90
35668;DHT22;22158;59.280;17.806;2024-02-04T09:49:09;3.00;99.90
35668;DHT22;22158;59.280;17.806;2024-02-04T09:51:35;3.00;99.90
35668;DHT22;22158;59.280;17.806;2024-02-04T09:54:04;2.90;99.90
35668;DHT22;22158;59.280;17.806;2024-02-04T09:56:32;3.00;99.90
35668;DHT22;22158;59.280;17.806;2024-02-04T09:58:58;3.00;99.90
35668;DHT22;22158;59.280;17.806;2024-02-04T10:01:25;3.00;99.90
35668;DHT22;22158;59.280;17.806;2024-02-04T10:03:51;3.00;99.90
35668;DHT22;22158;59.280;17.806;2024-02-04T10:06:17;3.10;99.90
35668;DHT22;22158;59.280;17.806;2024-02-04T10:08:43;3.10;99.90
35668;DHT22;22158;59.280;17.806;2024-02-04T10:11:09;3.20;99.90
35668;DHT22;22158;59.280;17.806;2024-02-04T10:13:45;3.20;99.90
35668;DHT22;22158;59.280;17.806;2024-02-04T10:16:12;3.20;99.90
35668;DHT22;22158;59.280;17.806;2024-02-04T10:18:41;3.30;99.90
35668;DHT22;22158;59.280;17.806;2024-02-04T10:21:18;3.30;99.90
35668;DHT22;22158;59.280;17.806;2024-02-04T10:23:48;3.40;99.90
35668;DHT22;22158;59.280;17.806;2024-02-04T10:26:14;3.40;99.90
35668;DHT22;22158;59.280;17.806;2024-02-04T10:28:39;3.30;99.90
35668;DHT22;22158;59.280;17.806;2024-02-04T10:31:08;3.30;99.90
35668;DHT22;22158;59.280;17.806;2024-02-04T10:33:35;3.30;99.90
35668;DHT22;22158;59.280;17.806;2024-02-04T10:36:01;3.40;99.90
35668;DHT22;22158;59.280;17.806;2024-02-04T10:38:27;3.40;99.90
35668;DHT22;22158;59.280;17.806;2024-02-04T10:40:54;3.40;99.90
35668;DHT22;22158;59.280;17.806;2024-02-04T10:43:20;3.40;99.90
35668;DHT22;22158;59.280;17.806;2024-02-04T10:45:47;3.30;99.90
35668;DHT22;22158;59.280;17.806;2024-02-04T10:48:16;3.30;99.90
35668;DHT22;22158;59.280;17.806;2024-02-04T10:50:46;3.30;99.90
35668;DHT22;22158;59.280;17.806;2024-02-04T10:53:14;3.30;99.90
35668;DHT22;22158;59.280;17.806;2024-02-04T10:55:41;3.30;99.90
35668;DHT22;22158;59.280;17.806;2024-02-04T10:58:08;3.30;99.90
35668;DHT22;22158;59.280;17.806;2024-02-04T11:00:34;3.30;99.90
35668;DHT22;22158;59.280;17.806;2024-02-04T11:03:02;3.30;99.90
35668;DHT22;22158;59.280;17.806;2024-02-04T11:05:30;3.20;99.90
35668;DHT22;22158;59.280;17.806;2024-02-04T11:07:56;3.20;99.90
35668;DHT22;22158;59.280;17.806;2024-02-04T11:10:23;3.10;99.90
35668;DHT22;22158;59.280;17.806;2024-02-04T11:12:50;3.10;99.90
35668;DHT22;22158;59.280;17.806;2024-02-04T11:15:17;3.10;99.90
35668;DHT22;22158;59.280;17.806;2024-02-04T11:17:57;3.00;99.90
35668;DHT22;22158;59.280;17.806;2024-02-04T11:25:57;3.00;99.90
35668;DHT22;22158;59.280;17.806;2024-02-04T11:28:24;3.10;99.90
35668;DHT22;22158;59.280;17.806;2024-02-04T11:30:51;3.20;99.90
35668;DHT22;22158;59.280;17.806;2024-02-04T11:33:21;3.30;99.90
35668;DHT22;22158;59.280;17.806;2024-02-04T11:35:58;3.50;99.90
35668;DHT22;22158;59.280;17.806;2024-02-04T11:38:32;3.70;99.90
35668;DHT22;22158;59.280;17.806;2024-02-04T11:40:58;3.70;99.90
35668;DHT22;22158;59.280;17.806;2024-02-04T11:43:24;3.90;99.90
35668;DHT22;22158;59.280;17.806;2024-02-04T11:45:52;4.00;99.90
35668;DHT22;22158;59.280;17.806;2024-02-04T11:48:19;4.10;99.90
35668;DHT22;22158;59.280;17.806;2024-02-04T11:50:52;4.20;99.90
35668;DHT22;22158;59.280;17.806;2024-02-04T11:53:18;4.30;99.90
35668;DHT22;22158;59.280;17.806;2024-02-04T11:55:45;4.30;99.90
35668;DHT22;22158;59.280;17.806;2024-02-04T11:58:11;4.30;99.90
35668;DHT22;22158;59.280;17.806;2024-02-04T12:00:37;4.40;99.90
35668;DHT22;22158;59.280;17.806;2024-02-04T12:03:08;4.40;99.90
35668;DHT22;22158;59.280;17.806;2024-02-04T12:05:35;4.50;99.90
35668;DHT22;22158;59.280;17.806;2024-02-04T12:08:07;4.60;99.90
35668;DHT22;22158;59.280;17.806;2024-02-04T12:10:35;4.60;99.90
35668;DHT22;22158;59.280;17.806;2024-02-04T12:13:05;4.60;99.90
35668;DHT22;22158;59.280;17.806;2024-02-04T12:15:33;4.50;99.90
35668;DHT22;22158;59.280;17.806;2024-02-04T12:18:09;4.50;99.90
35668;DHT22;22158;59.280;17.806;2024-02-04T12:20:36;4.40;99.90
35668;DHT22;22158;59.280;17.806;2024-02-04T12:23:05;4.40;99.90
35668;DHT22;22158;59.280;17.806;2024-02-04T12:25:32;4.50;99.90
35668;DHT22;22158;59.280;17.806;2024-02-04T12:27:59;4.40;99.90
35668;DHT22;22158;59.280;17.806;2024-02-04T12:30:26;4.40;99.90
35668;DHT22;22158;59.280;17.806;2024-02-04T12:32:59;4.60;99.90
35668;DHT22;22158;59.280;17.806;2024-02-04T12:35:26;4.70;99.90
35668;DHT22;22158;59.280;17.806;2024-02-04T12:37:53;4.80;99.90
35668;DHT22;22158;59.280;17.806;2024-02-04T12:40:26;4.90;99.90
35668;DHT22;22158;59.280;17.806;2024-02-04T12:42:56;5.10;99.90
35668;DHT22;22158;59.280;17.806;2024-02-04T12:45:26;5.40;99.90
35668;DHT22;22158;59.280;17.806;2024-02-04T12:47:52;5.60;99.90
35668;DHT22;22158;59.280;17.806;2024-02-04T12:50:19;5.70;99.90
35668;DHT22;22158;59.280;17.806;2024-02-04T12:52:46;5.90;99.90
35668;DHT22;22158;59.280;17.806;2024-02-04T12:55:25;5.80;99.90
35668;DHT22;22158;59.280;17.806;2024-02-04T13:00:29;5.90;99.90
35668;DHT22;22158;59.280;17.806;2024-02-04T13:02:55;6.00;99.90
35668;DHT22;22158;59.280;17.806;2024-02-04T13:05:24;6.10;99.90
35668;DHT22;22158;59.280;17.806;2024-02-04T13:08:01;6.40;99.90
35668;DHT22;22158;59.280;17.806;2024-02-04T13:10:28;7.10;99.90
35668;DHT22;22158;59.280;17.806;2024-02-04T13:13:02;8.10;99.90
35668;DHT22;22158;59.280;17.806;2024-02-04T13:15:32;8.90;98.70
35668;DHT22;22158;59.280;17.806;2024-02-04T13:17:58;9.50;98.10
35668;DHT22;22158;59.280;17.806;2024-02-04T13:20:25;9.80;96.90
35668;DHT22;22158;59.280;17.806;2024-02-04T13:22:51;10.10;96.30
35668;DHT22;22158;59.280;17.806;2024-02-04T13:25:19;10.10;95.90
35668;DHT22;22158;59.280;17.806;2024-02-04T13:27:46;9.60;96.40
35668;DHT22;22158;59.280;17.806;2024-02-04T13:30:12;8.50;97.80
35668;DHT22;22158;59.280;17.806;2024-02-04T13:32:39;8.80;97.70
35668;DHT22;22158;59.280;17.806;2024-02-04T13:35:06;8.70;97.80
35668;DHT22;22158;59.280;17.806;2024-02-04T13:37:35;8.60;97.80
35668;DHT22;22158;59.280;17.806;2024-02-04T13:40:02;8.60;98.10
35668;DHT22;22158;59.280;17.806;2024-02-04T13:42:28;8.00;99.00
35668;DHT22;22158;59.280;17.806;2024-02-04T13:44:54;7.20;99.90
35668;DHT22;22158;59.280;17.806;2024-02-04T13:47:20;7.50;99.90
35668;DHT22;22158;59.280;17.806;2024-02-04T13:49:45;7.20;99.90
35668;DHT22;22158;59.280;17.806;2024-02-04T13:52:11;6.60;99.90
35668;DHT22;22158;59.280;17.806;2024-02-04T13:54:37;6.20;99.90
35668;DHT22;22158;59.280;17.806;2024-02-04T13:57:05;5.60;99.90
35668;DHT22;22158;59.280;17.806;2024-02-04T13:59:31;5.20;99.90
35668;DHT22;22158;59.280;17.806;2024-02-04T14:01:57;5.00;99.90
35668;DHT22;22158;59.280;17.806;2024-02-04T14:04:23;4.70;99.90
35668;DHT22;22158;59.280;17.806;2024-02-04T14:06:48;4.60;99.90
35668;DHT22;22158;59.280;17.806;2024-02-04T14:09:14;4.40;99.90
35668;DHT22;22158;59.280;17.806;2024-02-04T14:11:40;4.20;99.90
35668;DHT22;22158;59.280;17.806;2024-02-04T14:14:06;4.00;99.90
35668;DHT22;22158;59.280;17.806;2024-02-04T14:16:32;3.80;99.90
35668;DHT22;22158;59.280;17.806;2024-02-04T14:18:57;3.70;99.90
35668;DHT22;22158;59.280;17.806;2024-02-04T14:21:23;3.60;99.90
35668;DHT22;22158;59.280;17.806;2024-02-04T14:23:49;3.60;99.90
35668;DHT22;22158;59.280;17.806;2024-02-04T14:26:18;3.50;99.90
35668;DHT22;22158;59.280;17.806;2024-02-04T14:28:44;3.40;99.90
35668;DHT22;22158;59.280;17.806;2024-02-04T14:31:10;3.30;99.90
35668;DHT22;22158;59.280;17.806;2024-02-04T14:33:35;3.30;99.90
35668;DHT22;22158;59.280;17.806;2024-02-04T14:36:01;3.20;99.90
35668;DHT22;22158;59.280;17.806;2024-02-04T14:38:27;3.20;99.90
35668;DHT22;22158;59.280;17.806;2024-02-04T14:40:53;3.10;99.90
35668;DHT22;22158;59.280;17.806;2024-02-04T14:43:18;3.00;99.90
35668;DHT22;22158;59.280;17.806;2024-02-04T14:45:47;3.00;99.90
35668;DHT22;22158;59.280;17.806;2024-02-04T14:48:12;2.90;99.90
35668;DHT22;22158;59.280;17.806;2024-02-04T14:50:38;2.80;99.90
35668;DHT22;22158;59.280;17.806;2024-02-04T14:53:04;2.80;99.90
35668;DHT22;22158;59.280;17.806;2024-02-04T14:55:29;2.80;99.90
35668;DHT22;22158;59.280;17.806;2024-02-04T14:57:55;2.60;99.90
35668;DHT22;22158;59.280;17.806;2024-02-04T15:00:21;2.70;99.90
35668;DHT22;22158;59.280;17.806;2024-02-04T15:02:50;2.60;99.90
35668;DHT22;22158;59.280;17.806;2024-02-04T15:05:16;2.50;99.90
35668;DHT22;22158;59.280;17.806;2024-02-04T15:07:42;2.40;99.90
35668;DHT22;22158;59.280;17.806;2024-02-04T15:10:08;2.40;99.90
35668;DHT22;22158;59.280;17.806;2024-02-04T15:12:36;2.40;99.90
35668;DHT22;22158;59.280;17.806;2024-02-04T15:15:03;2.30;99.90
35668;DHT22;22158;59.280;17.806;2024-02-04T15:17:29;2.30;99.90
35668;DHT22;22158;59.280;17.806;2024-02-04T15:19:55;2.30;99.90
35668;DHT22;22158;59.280;17.806;2024-02-04T15:22:21;2.30;99.90
35668;DHT22;22158;59.280;17.806;2024-02-04T15:24:47;2.30;99.90
35668;DHT22;22158;59.280;17.806;2024-02-04T15:27:13;2.20;99.90
35668;DHT22;22158;59.280;17.806;2024-02-04T15:29:39;2.20;99.90
35668;DHT22;22158;59.280;17.806;2024-02-04T15:32:07;2.20;99.90
35668;DHT22;22158;59.280;17.806;2024-02-04T15:34:32;2.20;99.90
35668;DHT22;22158;59.280;17.806;2024-02-04T15:36:59;2.20;99.90
35668;DHT22;22158;59.280;17.806;2024-02-04T15:39:25;2.10;99.90